createdAt,value
2022-07-25T00:00:21.549Z,2.92
2022-07-25T00:02:47.717Z,3.13
2022-07-25T00:05:14.663Z,3.55
2022-07-25T00:07:40.856Z,3.85
2022-07-25T00:10:07.721Z,3.58
2022-07-25T00:12:34.075Z,4.43
2022-07-25T00:15:00.290Z,4.53
2022-07-25T00:17:26.451Z,2.70
2022-07-25T00:19:52.664Z,3.35
2022-07-25T00:22:18.959Z,4.05
2022-07-25T00:24:45.154Z,5.13
2022-07-25T00:27:11.308Z,5.20
2022-07-25T00:29:37.466Z,4.50
2022-07-25T00:32:04.244Z,3.42
2022-07-25T00:34:30.431Z,2.85
2022-07-25T00:36:56.609Z,3.33
2022-07-25T00:39:22.831Z,8.32
2022-07-25T00:41:49.009Z,3.55
2022-07-25T00:44:28.484Z,3.83
2022-07-25T00:46:55.178Z,3.33
2022-07-25T00:49:21.904Z,2.65
2022-07-25T00:51:48.102Z,6.43
2022-07-25T00:54:15.250Z,4.07
2022-07-25T00:56:42.282Z,3.42
2022-07-25T00:59:08.759Z,3.20
2022-07-25T01:01:35.681Z,3.40
2022-07-25T01:04:02.075Z,2.88
2022-07-25T01:06:28.632Z,4.93
2022-07-25T01:08:55.314Z,3.22
2022-07-25T01:11:22.200Z,3.63
2022-07-25T01:13:48.875Z,2.78
2022-07-25T01:16:15.221Z,4.45
2022-07-25T01:18:41.633Z,3.35
2022-07-25T01:21:08.091Z,5.35
2022-07-25T01:23:34.289Z,2.55
2022-07-25T01:26:00.513Z,2.78
2022-07-25T01:28:26.726Z,3.50
2022-07-25T01:30:52.965Z,3.25
2022-07-25T01:33:21.161Z,5.07
2022-07-25T01:35:48.439Z,5.63
2022-07-25T01:38:15.280Z,5.40
2022-07-25T01:40:42.134Z,3.63
2022-07-25T01:43:09.005Z,3.65
2022-07-25T01:45:35.279Z,2.42
2022-07-25T01:48:01.600Z,2.83
2022-07-25T01:50:27.837Z,3.70
2022-07-25T01:52:54.056Z,3.40
2022-07-25T01:55:20.498Z,2.83
2022-07-25T01:57:49.918Z,3.10
2022-07-25T02:00:17.353Z,3.67
2022-07-25T02:02:44.649Z,3.90
2022-07-25T02:05:12.531Z,3.33
2022-07-25T02:07:39.035Z,2.72
2022-07-25T02:10:07.418Z,2.30
2022-07-25T02:12:33.723Z,3.25
2022-07-25T02:15:00.236Z,2.38
2022-07-25T02:17:26.519Z,3.75
2022-07-25T02:19:52.729Z,3.20
2022-07-25T02:22:18.912Z,3.22
2022-07-25T02:24:45.120Z,3.05
2022-07-25T02:27:11.297Z,4.35
2022-07-25T02:29:37.457Z,3.10
2022-07-25T02:32:03.879Z,3.58
2022-07-25T02:34:30.034Z,3.03
2022-07-25T02:36:56.214Z,2.10
2022-07-25T02:39:22.432Z,2.50
2022-07-25T02:41:48.609Z,3.92
2022-07-25T02:44:14.762Z,2.85
2022-07-25T02:46:40.922Z,2.70
2022-07-25T02:49:07.176Z,3.28
2022-07-25T02:51:33.404Z,3.67
2022-07-25T02:53:59.554Z,3.13
2022-07-25T02:56:29.846Z,3.00
2022-07-25T02:58:56.769Z,6.38
2022-07-25T03:01:22.971Z,4.72
2022-07-25T03:03:49.248Z,4.57
2022-07-25T03:06:15.572Z,2.72
2022-07-25T03:08:41.724Z,3.67
2022-07-25T03:11:07.893Z,2.55
2022-07-25T03:13:34.044Z,3.38
2022-07-25T03:16:00.401Z,3.28
2022-07-25T03:18:26.552Z,3.70
2022-07-25T03:20:52.731Z,5.18
2022-07-25T03:23:18.922Z,4.00
2022-07-25T03:25:45.104Z,3.47
2022-07-25T03:28:11.259Z,3.03
2022-07-25T03:30:37.467Z,3.90
2022-07-25T03:33:03.706Z,4.65
2022-07-25T03:35:29.867Z,5.20
2022-07-25T03:37:56.006Z,4.65
2022-07-25T03:40:22.401Z,4.88
2022-07-25T03:42:48.552Z,4.65
2022-07-25T03:45:14.701Z,12.35
2022-07-25T03:47:40.860Z,8.23
2022-07-25T03:50:07.235Z,3.47
2022-07-25T03:52:33.390Z,3.78
2022-07-25T03:54:59.547Z,6.88
2022-07-25T03:57:25.712Z,9.98
2022-07-25T03:59:51.978Z,5.20
2022-07-25T04:02:18.307Z,5.63
2022-07-25T04:04:44.540Z,4.82
2022-07-25T04:07:10.747Z,6.32
2022-07-25T04:09:36.915Z,3.15
2022-07-25T04:12:03.328Z,5.22
2022-07-25T04:14:29.486Z,3.13
2022-07-25T04:16:55.733Z,5.47
2022-07-25T04:19:21.940Z,4.13
2022-07-25T04:21:48.560Z,4.68
2022-07-25T04:24:14.726Z,6.40
2022-07-25T04:26:40.866Z,3.70
2022-07-25T04:29:07.068Z,3.75
2022-07-25T04:31:33.426Z,5.00
2022-07-25T04:33:59.850Z,3.35
2022-07-25T04:36:26.748Z,6.38
2022-07-25T04:38:53.750Z,5.85
2022-07-25T04:41:19.938Z,3.55
2022-07-25T04:43:48.697Z,4.03
2022-07-25T04:46:21.928Z,8.43
2022-07-25T04:48:48.550Z,6.05
2022-07-25T04:51:14.983Z,5.57
2022-07-25T04:53:41.135Z,7.75
2022-07-25T04:56:07.493Z,7.22
2022-07-25T04:58:34.025Z,5.68
2022-07-25T05:01:00.248Z,3.25
2022-07-25T05:03:26.443Z,7.55
2022-07-25T05:05:52.842Z,4.25
2022-07-25T05:08:18.988Z,6.68
2022-07-25T05:10:45.148Z,5.63
2022-07-25T05:13:11.307Z,2.90
2022-07-25T05:15:39.306Z,6.22
2022-07-25T05:18:05.561Z,4.10
2022-07-25T05:20:31.871Z,4.38
2022-07-25T05:22:58.068Z,3.42
2022-07-25T05:25:25.418Z,5.18
2022-07-25T05:27:54.415Z,3.90
2022-07-25T05:30:20.587Z,2.83
2022-07-25T05:32:46.733Z,24.15
2022-07-25T05:35:13.631Z,5.43
2022-07-25T05:37:40.036Z,3.75
2022-07-25T05:40:07.665Z,4.53
2022-07-25T05:42:34.031Z,3.15
2022-07-25T05:45:00.568Z,3.45
2022-07-25T05:47:26.736Z,3.00
2022-07-25T05:49:52.885Z,4.18
2022-07-25T05:52:19.221Z,4.30
2022-07-25T05:54:45.392Z,4.55
2022-07-25T05:57:11.528Z,5.53
2022-07-25T05:59:37.699Z,4.00
2022-07-25T11:23:58.717Z,7.72
2022-07-25T11:26:24.874Z,7.63
2022-07-25T11:28:51.094Z,7.65
2022-07-25T11:31:18.713Z,8.18
2022-07-25T11:33:48.680Z,9.77
2022-07-25T11:36:15.463Z,9.30
2022-07-25T11:38:42.502Z,9.35
2022-07-25T11:41:08.763Z,10.77
2022-07-25T11:43:34.902Z,7.15
2022-07-25T11:46:05.133Z,10.65
2022-07-25T11:48:40.141Z,7.43
2022-07-25T11:51:18.339Z,8.05
2022-07-25T11:53:49.748Z,9.57
2022-07-25T11:59:08.128Z,6.40
2022-07-25T12:01:39.515Z,6.70
2022-07-25T12:04:17.281Z,7.68
2022-07-25T12:06:48.603Z,6.95
2022-07-25T12:09:19.874Z,7.57
2022-07-25T12:11:47.916Z,6.63
2022-07-25T12:14:14.239Z,8.23
2022-07-25T12:16:40.698Z,9.95
2022-07-25T12:19:18.908Z,6.68
2022-07-25T12:21:45.418Z,8.38
2022-07-25T12:24:11.591Z,8.88
2022-07-25T12:26:37.966Z,6.32
2022-07-25T12:29:04.445Z,7.53
2022-07-25T12:31:31.006Z,6.78
2022-07-25T12:33:57.224Z,10.95
2022-07-25T12:36:23.412Z,8.38
2022-07-25T12:38:49.578Z,10.05
2022-07-25T12:41:17.978Z,9.27
2022-07-25T12:43:44.925Z,7.90
2022-07-25T12:46:11.551Z,6.50
2022-07-25T12:48:37.839Z,8.00
2022-07-25T12:51:04.114Z,7.57
2022-07-25T12:53:30.283Z,7.38
2022-07-25T12:55:56.496Z,8.45
2022-07-25T12:58:22.645Z,12.40
2022-07-25T13:00:49.417Z,7.68
2022-07-25T13:03:16.049Z,9.18
2022-07-25T13:05:42.413Z,8.95
2022-07-25T13:08:08.562Z,9.85
2022-07-25T13:10:34.754Z,7.57
2022-07-25T13:13:00.913Z,7.55
2022-07-25T13:15:28.348Z,8.32
2022-07-25T13:17:54.580Z,6.20
2022-07-25T13:20:20.782Z,9.00
2022-07-25T13:22:46.940Z,8.07
2022-07-25T13:25:13.255Z,9.55
2022-07-25T13:27:39.418Z,6.78
2022-07-25T13:30:07.195Z,6.55
2022-07-25T13:32:34.099Z,7.15
2022-07-25T13:35:00.289Z,7.07
2022-07-25T13:37:26.432Z,6.50
2022-07-25T13:39:52.644Z,7.20
2022-07-25T13:42:18.842Z,7.22
2022-07-25T13:44:45.022Z,7.07
2022-07-25T13:47:11.396Z,6.75
2022-07-25T13:49:37.676Z,5.90
2022-07-25T13:52:04.363Z,6.70
2022-07-25T13:54:30.550Z,8.23
2022-07-25T13:56:56.699Z,6.65
2022-07-25T13:59:22.908Z,6.10
2022-07-25T14:01:50.515Z,6.38
2022-07-25T14:04:17.116Z,9.55
2022-07-25T14:06:43.471Z,7.03
2022-07-25T14:09:09.933Z,10.23
2022-07-25T14:11:36.485Z,6.25
2022-07-25T14:14:02.696Z,7.65
2022-07-25T14:16:29.238Z,6.72
2022-07-25T14:18:55.824Z,5.60
2022-07-25T14:21:22.027Z,7.45
2022-07-25T14:23:48.786Z,6.13
2022-07-25T14:26:14.940Z,8.20
2022-07-25T14:28:41.099Z,7.43
2022-07-25T14:31:07.574Z,6.97
2022-07-25T14:33:37.982Z,5.45
2022-07-25T14:36:04.245Z,6.78
2022-07-25T14:38:31.108Z,5.85
2022-07-25T14:40:57.263Z,6.95
2022-07-25T14:43:23.450Z,6.10
2022-07-25T14:45:49.646Z,7.63
2022-07-25T14:48:15.815Z,7.75
2022-07-25T14:50:42.058Z,6.40
2022-07-25T14:53:08.280Z,9.38
2022-07-25T14:55:34.431Z,5.65
2022-07-25T14:58:02.649Z,7.15
2022-07-25T15:00:29.779Z,7.32
2022-07-25T15:02:56.067Z,6.70
2022-07-25T15:05:22.478Z,6.80
2022-07-25T15:07:48.655Z,6.15
2022-07-25T15:10:14.824Z,6.78
2022-07-25T15:12:40.999Z,7.07
2022-07-25T15:15:07.491Z,8.32
2022-07-25T15:17:33.836Z,6.05
2022-07-25T15:20:00.279Z,5.60
2022-07-25T15:22:26.459Z,6.03
2022-07-25T15:27:38.716Z,6.05
2022-07-25T15:30:06.325Z,5.85
2022-07-25T15:32:32.667Z,7.22
2022-07-25T15:34:59.453Z,7.57
2022-07-25T15:37:25.610Z,7.55
2022-07-25T15:39:51.838Z,7.60
2022-07-25T15:42:17.978Z,7.28
2022-07-25T15:44:44.151Z,6.32
2022-07-25T15:47:10.684Z,5.95
2022-07-25T15:49:37.519Z,6.53
2022-07-25T15:52:04.172Z,6.75
2022-07-25T15:54:30.476Z,7.32
2022-07-25T15:56:56.735Z,5.28
2022-07-25T15:59:23.153Z,8.50
2022-07-25T16:01:49.326Z,7.75
2022-07-25T16:04:15.700Z,6.18
2022-07-25T16:06:41.976Z,6.00
2022-07-25T16:09:08.511Z,8.20
2022-07-25T16:11:35.974Z,6.53
2022-07-25T16:14:02.126Z,8.27
2022-07-25T16:16:28.361Z,6.07
2022-07-25T16:18:54.580Z,7.95
2022-07-25T16:21:20.848Z,7.85
2022-07-25T16:23:47.001Z,5.88
2022-07-25T16:26:13.615Z,6.22
2022-07-25T16:28:40.087Z,6.40
2022-07-25T16:31:07.325Z,10.07
2022-07-25T16:33:33.614Z,7.95
2022-07-25T16:35:59.874Z,8.93
2022-07-25T16:38:27.511Z,7.53
2022-07-25T16:40:53.671Z,9.95
2022-07-25T16:43:19.815Z,6.53
2022-07-25T16:45:46.011Z,6.78
2022-07-25T16:48:12.156Z,8.93
2022-07-25T16:50:38.784Z,11.38
2022-07-25T16:53:05.033Z,8.90
2022-07-25T16:55:31.296Z,9.73
2022-07-25T16:57:58.755Z,8.18
2022-07-25T17:00:24.935Z,14.60
2022-07-25T17:02:51.188Z,13.20
2022-07-25T17:05:17.772Z,9.65
2022-07-25T17:07:44.013Z,10.77
2022-07-25T17:10:10.589Z,11.55
2022-07-25T17:12:37.028Z,10.82
2022-07-25T17:15:03.986Z,11.82
2022-07-25T17:17:30.166Z,9.45
2022-07-25T17:19:59.863Z,10.35
2022-07-25T17:22:26.424Z,8.43
2022-07-25T17:24:52.609Z,13.00
2022-07-25T17:27:18.822Z,11.02
2022-07-25T17:29:45.013Z,11.95
2022-07-25T17:32:11.256Z,7.60
2022-07-25T17:34:37.417Z,9.32
2022-07-25T17:37:05.922Z,8.15
2022-07-25T17:39:33.623Z,9.52
2022-07-25T17:42:00.098Z,11.27
2022-07-25T17:44:26.411Z,8.48
2022-07-25T17:46:53.901Z,22.17
2022-07-25T17:49:21.825Z,19.17
2022-07-25T17:51:48.202Z,12.88
2022-07-25T17:54:14.522Z,14.13
2022-07-25T17:56:41.980Z,13.77
2022-07-25T17:59:08.714Z,10.68
2022-07-25T18:01:34.885Z,14.05
2022-07-25T18:04:01.203Z,11.32
2022-07-25T18:06:30.052Z,14.65
2022-07-25T18:08:56.461Z,12.52
2022-07-25T18:11:22.693Z,13.57
2022-07-25T18:13:48.913Z,14.00
2022-07-25T18:16:15.334Z,12.63
2022-07-25T18:18:41.584Z,14.57
2022-07-25T18:21:07.742Z,13.73
2022-07-25T18:23:33.961Z,14.00
2022-07-25T18:26:00.168Z,19.00
2022-07-25T18:28:26.352Z,12.75
2022-07-25T18:30:52.712Z,13.38
2022-07-25T18:33:20.327Z,10.65
2022-07-25T18:35:46.561Z,12.65
2022-07-25T18:38:12.798Z,12.82
2022-07-25T18:40:39.071Z,13.50
2022-07-25T18:43:08.691Z,10.85
2022-07-25T18:45:37.385Z,12.02
2022-07-25T18:48:05.915Z,11.45
2022-07-25T18:50:32.119Z,12.82
2022-07-25T18:52:59.245Z,12.50
2022-07-25T18:55:25.474Z,12.52
2022-07-25T18:57:51.709Z,14.68
2022-07-25T19:00:18.320Z,10.85
2022-07-25T19:02:44.462Z,11.23
2022-07-25T19:05:10.726Z,12.05
2022-07-25T19:07:37.091Z,13.35
2022-07-25T19:10:03.841Z,9.77
2022-07-25T19:12:29.996Z,10.98
2022-07-25T19:14:56.527Z,10.98
2022-07-25T19:17:24.049Z,11.30
2022-07-25T19:19:51.195Z,9.27
2022-07-25T19:22:17.416Z,9.82
2022-07-25T19:24:44.245Z,10.98
2022-07-25T19:27:11.004Z,10.73
2022-07-25T19:29:37.606Z,9.95
2022-07-25T19:32:03.965Z,13.27
2022-07-25T19:34:30.402Z,9.70
2022-07-25T19:36:56.911Z,10.02
2022-07-25T19:39:24.597Z,13.40
2022-07-25T19:41:52.113Z,11.15
2022-07-25T19:44:18.464Z,11.65
2022-07-25T19:46:45.156Z,11.02
2022-07-25T19:49:11.445Z,11.32
2022-07-25T19:51:37.614Z,10.63
2022-07-25T19:54:04.551Z,14.95
2022-07-25T19:56:31.688Z,12.40
2022-07-25T19:58:58.221Z,11.40
2022-07-25T20:01:24.602Z,11.70
2022-07-25T20:03:50.825Z,12.48
2022-07-25T20:06:19.870Z,13.40
2022-07-25T20:08:46.548Z,12.13
2022-07-25T20:11:12.829Z,12.50
2022-07-25T20:13:39.668Z,12.02
2022-07-25T20:16:06.029Z,10.40
2022-07-25T20:18:32.463Z,13.70
2022-07-25T20:20:58.978Z,15.50
2022-07-25T20:23:25.647Z,10.13
2022-07-25T20:25:52.298Z,11.48
2022-07-25T20:28:18.746Z,10.65
2022-07-25T20:30:44.984Z,10.75
2022-07-25T20:33:11.211Z,8.90
2022-07-25T20:35:38.591Z,12.25
2022-07-25T20:38:09.457Z,9.07
2022-07-25T20:40:36.600Z,10.32
2022-07-25T20:43:04.168Z,7.25
2022-07-25T20:45:30.543Z,9.05
2022-07-25T20:47:56.733Z,6.90
2022-07-25T20:50:22.883Z,9.65
2022-07-25T20:52:49.106Z,9.13
2022-07-25T20:55:15.430Z,8.98
2022-07-25T20:57:41.590Z,8.10
2022-07-25T21:00:08.455Z,9.77
2022-07-25T21:02:34.647Z,8.38
2022-07-25T21:05:00.858Z,8.95
2022-07-25T21:07:26.995Z,10.30
2022-07-25T21:09:53.206Z,10.32
2022-07-25T21:12:19.395Z,8.50
2022-07-25T21:14:45.581Z,7.45
2022-07-25T21:17:11.822Z,10.07
2022-07-25T21:19:38.015Z,9.48
2022-07-25T21:22:04.248Z,7.65
2022-07-25T21:24:30.546Z,9.85
2022-07-25T21:26:56.736Z,10.45
2022-07-25T21:29:22.988Z,10.90
2022-07-25T21:31:49.215Z,8.85
2022-07-25T21:34:15.894Z,11.60
2022-07-25T21:36:42.111Z,12.98
2022-07-25T21:39:08.611Z,9.75
2022-07-25T21:41:35.198Z,9.93
2022-07-25T21:44:01.576Z,9.77
2022-07-25T21:46:27.766Z,10.40
2022-07-25T21:49:13.020Z,10.65
2022-07-25T21:51:40.898Z,9.50
2022-07-25T21:54:07.401Z,12.55
2022-07-25T21:56:33.643Z,12.07
2022-07-25T21:58:59.864Z,11.00
2022-07-25T22:01:26.089Z,13.75
2022-07-25T22:03:52.749Z,12.90
2022-07-25T22:06:19.345Z,9.65
2022-07-25T22:08:45.620Z,12.52
2022-07-25T22:11:20.768Z,13.38
2022-07-25T22:13:58.554Z,16.63
2022-07-25T22:16:24.848Z,14.77
2022-07-25T22:18:51.022Z,13.10
2022-07-25T22:21:17.495Z,14.35
2022-07-25T22:23:44.608Z,14.07
2022-07-25T22:26:10.804Z,13.57
2022-07-25T22:28:36.953Z,11.85
2022-07-25T22:31:03.221Z,12.68
2022-07-25T22:33:31.089Z,12.43
2022-07-25T22:35:57.716Z,10.93
2022-07-25T22:38:24.033Z,13.02
2022-07-25T22:40:50.197Z,14.75
2022-07-25T22:43:16.377Z,12.00
2022-07-25T22:45:43.151Z,11.68
2022-07-25T22:48:09.408Z,12.88
2022-07-25T22:50:35.618Z,15.02
2022-07-25T22:53:01.784Z,13.32
2022-07-25T22:55:28.073Z,13.55
2022-07-25T22:57:54.235Z,15.63
2022-07-25T23:00:20.636Z,12.45
2022-07-25T23:02:46.834Z,15.20
2022-07-25T23:05:13.051Z,14.70
2022-07-25T23:07:39.243Z,11.10
2022-07-25T23:10:06.486Z,14.15
2022-07-25T23:12:32.659Z,15.13
2022-07-25T23:14:58.846Z,17.13
2022-07-25T23:17:25.021Z,13.13
2022-07-25T23:19:54.184Z,11.77
2022-07-25T23:22:26.700Z,11.70
2022-07-25T23:24:52.905Z,14.48
2022-07-25T23:27:19.071Z,14.18
2022-07-25T23:29:45.311Z,14.35
2022-07-25T23:32:11.506Z,15.88
2022-07-25T23:34:37.706Z,12.25
2022-07-25T23:37:04.332Z,13.40
2022-07-25T23:39:31.914Z,11.77
2022-07-25T23:41:58.807Z,9.90
2022-07-25T23:44:25.875Z,10.60
2022-07-25T23:46:54.277Z,14.00
2022-07-25T23:49:20.787Z,15.05
2022-07-25T23:51:47.046Z,13.65
2022-07-25T23:54:13.218Z,14.57
2022-07-25T23:56:39.436Z,17.70
2022-07-25T23:59:05.950Z,13.35
